Time;durP1;ratioP1;P1;durP2;ratioP2;P2;SDS_P1;SDS_P2;PMS_P1;PMS_P2;Temp;Humidity;BMP_temperature;BMP_pressure;BME280_temperature;BME280_humidity;BME280_pressure;Samples;Min_cycle;Max_cycle;Signal;HPM_P1;HPM_P2
2022/05/14 10:36:52;;;;;;;8.85;2.50;;;;;;;24.44;30.04;100200.59;4489141;26;34133;-58
2022/05/14 10:39:43;;;;;;;4.40;2.30;;;;;;;24.64;29.84;100199.63;4451505;32;34048;-58
2022/05/14 10:42:18;;;;;;;6.12;2.42;;;;;;;24.99;31.01;100201.12;4469720;32;33911;-58
2022/05/14 10:44:53;;;;;;;7.03;2.30;;;;;;;25.28;29.88;100199.16;4431400;32;33432;-58
2022/05/14 10:47:22;;;;;;;5.97;2.67;;;;;;;24.04;32.15;100190.19;4454735;32;33948;-57
2022/05/14 10:49:57;;;;;;;8.40;1.87;;;;;;;24.57;31.10;100192.59;4454077;32;34567;-58
2022/05/14 10:52:24;;;;;;;3.85;2.22;;;;;;;24.92;29.02;100193.25;4456496;32;34464;-58
2022/05/14 10:54:52;;;;;;;8.77;1.98;;;;;;;25.08;28.83;100194.00;4469559;32;33219;-58
2022/05/14 10:57:19;;;;;;;4.32;1.98;;;;;;;24.64;28.37;100183.72;4469592;32;34595;-58
2022/05/14 11:00:12;;;;;;;6.57;1.90;;;;;;;25.03;28.42;100192.28;4465070;32;34773;-57
2022/05/14 11:02:52;;;;;;;8.15;2.08;;;;;;;24.82;26.97;100185.38;4450321;32;34582;-57
2022/05/14 11:05:35;;;;;;;5.25;2.28;;;;;;;24.99;28.77;100182.59;4455865;32;33275;-57
2022/05/14 11:08:12;;;;;;;5.62;2.10;;;;;;;24.38;28.73;100176.81;4457688;32;33839;-58
2022/05/14 11:10:40;;;;;;;5.50;1.90;;;;;;;24.55;28.14;100175.84;4469577;32;34810;-58
2022/05/14 11:13:12;;;;;;;4.00;1.75;;;;;;;24.74;27.86;100180.13;4454465;32;33998;-57
2022/05/14 11:15:40;;;;;;;6.95;1.95;;;;;;;25.02;28.30;100174.62;4452984;32;33256;-57
2022/05/14 11:18:10;;;;;;;7.60;2.40;;;;;;;25.28;28.18;100177.06;4455423;32;33843;-57
2022/05/14 11:20:55;;;;;;;5.53;1.70;;;;;;;24.60;28.50;100179.34;4466580;32;33907;-57
2022/05/14 11:23:23;;;;;;;4.55;1.77;;;;;;;25.03;28.12;100176.37;4470052;32;33634;-57
2022/05/14 11:26:07;;;;;;;5.28;1.70;;;;;;;24.70;25.88;100173.09;4455568;32;33331;-57
2022/05/14 11:28:34;;;;;;;4.90;1.95;;;;;;;24.47;27.43;100176.75;4453636;32;34526;-58
2022/05/14 11:31:21;;;;;;;7.85;2.17;;;;;;;24.77;27.74;100156.25;4469807;32;34001;-58
2022/05/14 11:33:49;;;;;;;5.03;1.90;;;;;;;24.21;27.72;100158.34;4455682;32;34549;-57
2022/05/14 11:36:21;;;;;;;7.43;1.90;;;;;;;24.25;28.09;100160.09;4468539;32;34314;-57
2022/05/14 11:39:10;;;;;;;4.28;1.60;;;;;;;24.55;27.81;100168.78;4468687;32;33776;-57
2022/05/14 11:41:38;;;;;;;2.75;1.20;;;;;;;24.50;24.78;100168.78;4469908;32;33653;-57
2022/05/14 11:44:06;;;;;;;4.50;1.92;;;;;;;24.41;24.81;100160.00;4467191;32;34509;-57
2022/05/14 11:46:41;;;;;;;6.87;1.87;;;;;;;24.55;25.74;100146.72;4466935;32;32824;-57
2022/05/14 11:49:30;;;;;;;12.48;2.50;;;;;;;24.85;26.05;100146.47;4467142;32;34415;-57
2022/05/14 11:52:05;;;;;;;9.73;2.08;;;;;;;24.77;26.75;100158.91;4464449;32;33589;-58
2022/05/14 11:55:01;;;;;;;6.10;1.80;;;;;;;24.95;27.92;100162.31;4462862;32;36505;-58
2022/05/14 11:57:33;;;;;;;4.20;1.70;;;;;;;25.08;27.46;100154.22;4447738;32;33244;-58
2022/05/14 12:00:12;;;;;;;4.55;1.80;;;;;;;25.04;27.04;100147.19;4452912;32;36141;-57
2022/05/14 12:02:48;;;;;;;5.72;1.77;;;;;;;24.79;27.19;100157.12;4468339;32;33735;-57
2022/05/14 12:05:25;;;;;;;6.87;1.95;;;;;;;24.85;28.37;100157.06;4468706;32;33966;-57
2022/05/14 12:08:15;;;;;;;7.62;2.50;;;;;;;24.87;25.91;100157.06;4468308;32;33437;-57
2022/05/14 12:10:53;;;;;;;5.53;1.90;;;;;;;24.83;29.19;100142.97;4468292;32;33508;-57
2022/05/14 12:13:42;;;;;;;5.00;1.77;;;;;;;24.97;28.89;100160.53;4466412;32;33835;-57
2022/05/14 12:16:11;;;;;;;5.20;1.58;;;;;;;24.91;29.16;100149.06;4467817;32;34284;-58
2022/05/14 12:18:41;;;;;;;7.25;2.20;;;;;;;25.30;27.68;100149.66;4469553;32;34057;-57
2022/05/14 12:21:09;;;;;;;6.65;2.00;;;;;;;25.08;27.23;100156.00;4468932;32;33782;-57
2022/05/14 12:23:47;;;;;;;7.07;2.05;;;;;;;24.28;27.10;100143.31;4454837;32;34083;-57
2022/05/14 12:26:23;;;;;;;5.55;1.70;;;;;;;24.98;26.98;100157.00;4451317;32;33418;-57
2022/05/14 12:28:56;;;;;;;5.82;2.10;;;;;;;24.66;28.55;100150.16;4467528;32;33451;-57
2022/05/14 12:34:20;;;;;;;8.50;1.80;;;;;;;25.16;28.69;100140.03;4468493;32;33862;-57
2022/05/14 12:36:53;;;;;;;5.20;1.80;;;;;;;24.40;26.84;100137.97;4477335;32;33714;-57
2022/05/14 12:39:23;;;;;;;6.85;2.00;;;;;;;24.18;29.09;100129.25;4452525;32;34033;-57
2022/05/14 12:41:53;;;;;;;6.10;2.10;;;;;;;24.84;28.79;100150.03;4464848;32;34560;-58
2022/05/14 12:44:28;;;;;;;6.53;1.80;;;;;;;25.34;28.92;100144.31;4456612;32;32969;-57
2022/05/14 12:46:58;;;;;;;12.77;2.83;;;;;;;25.26;26.17;100129.34;4456509;32;34189;-58
2022/05/14 12:49:35;;;;;;;6.07;2.10;;;;;;;25.28;26.85;100135.53;4454274;32;32841;-58
2022/05/14 12:52:24;;;;;;;7.32;2.67;;;;;;;25.29;25.53;100137.28;4438276;32;33898;-58
2022/05/14 12:54:56;;;;;;;5.90;2.55;;;;;;;25.14;27.77;100132.09;4464342;32;34137;-57
2022/05/14 12:57:24;;;;;;;5.47;2.70;;;;;;;25.19;28.33;100140.00;4456238;32;34002;-57
2022/05/14 12:59:53;;;;;;;7.18;2.22;;;;;;;25.41;27.97;100122.13;4456675;32;34029;-57
2022/05/14 13:02:33;;;;;;;5.32;2.03;;;;;;;24.85;27.02;100114.69;4457094;32;33939;-57
2022/05/14 13:05:22;;;;;;;6.18;2.30;;;;;;;24.53;27.34;100118.47;4451836;32;33851;-58
2022/05/14 13:07:56;;;;;;;9.52;2.42;;;;;;;24.50;28.80;100123.75;4455944;32;33720;-57
2022/05/14 13:10:26;;;;;;;5.10;1.95;;;;;;;24.84;27.69;100107.66;4455176;32;34009;-57
2022/05/14 13:12:57;;;;;;;6.05;2.20;;;;;;;24.83;29.00;100111.16;4469384;32;33964;-57
2022/05/14 13:15:43;;;;;;;10.15;2.70;;;;;;;24.67;29.16;100104.25;4470133;32;33944;-57
2022/05/14 13:18:19;;;;;;;6.37;2.62;;;;;;;24.25;30.39;100107.16;4466220;32;34542;-57
2022/05/14 13:20:47;;;;;;;4.15;1.90;;;;;;;24.66;30.43;100091.87;4455950;32;33458;-57
2022/05/14 13:23:21;;;;;;;9.50;3.40;;;;;;;24.68;28.60;100100.69;4455549;32;33994;-57
2022/05/14 13:26:08;;;;;;;11.07;5.37;;;;;;;24.51;29.47;100088.50;4470876;32;32693;-58
2022/05/14 13:28:40;;;;;;;6.57;3.78;;;;;;;24.05;29.85;100094.06;4452349;32;34405;-57
2022/05/14 13:31:28;;;;;;;16.50;8.05;;;;;;;24.01;30.94;100092.31;4456687;32;33432;-58
2022/05/14 13:37:07;;;;;;;10.18;5.45;;;;;;;24.00;30.95;100087.91;4468103;32;33870;-57
2022/05/14 13:37:16;;;;;;;22.00;13.40;;;;;;;24.60;30.70;100084.00;4457998;32;34734;-58
2022/05/14 13:39:49;;;;;;;;;;;;;;;24.89;28.98;100084.63;4468359;32;33421;-57
2022/05/14 13:42:26;;;;;;;4.20;2.58;;;;;;;24.07;28.17;100086.97;4465282;32;32345;-58
2022/05/14 13:45:05;;;;;;;6.60;2.10;;;;;;;24.10;29.23;100081.66;4470509;32;32426;-58
2022/05/14 13:47:34;;;;;;;8.18;2.85;;;;;;;24.58;28.31;100077.84;4456482;32;34619;-57
2022/05/14 13:50:03;;;;;;;8.07;2.50;;;;;;;24.79;29.49;100084.72;4456176;32;33788;-58
2022/05/14 13:52:34;;;;;;;4.95;2.40;;;;;;;24.46;29.32;100073.50;4470550;32;34148;-58
2022/05/14 13:55:08;;;;;;;7.93;3.50;;;;;;;24.43;30.02;100076.16;4471025;32;33811;-57
2022/05/14 13:57:39;;;;;;;7.03;3.00;;;;;;;24.30;30.79;100068.31;4470741;32;34052;-57
2022/05/14 14:00:10;;;;;;;6.30;2.90;;;;;;;24.55;30.00;100064.59;4470386;32;34262;-58
2022/05/14 14:02:39;;;;;;;6.00;2.05;;;;;;;24.18;30.40;100056.91;4470603;32;33059;-57
2022/05/14 14:05:16;;;;;;;4.22;2.33;;;;;;;24.44;29.48;100062.03;4470509;32;33848;-58
2022/05/14 14:07:45;;;;;;;3.80;1.98;;;;;;;24.48;29.52;100063.75;4456332;32;34639;-58
2022/05/14 14:10:21;;;;;;;4.65;1.80;;;;;;;24.52;30.52;100066.41;4455819;32;34585;-58
2022/05/14 14:12:49;;;;;;;5.30;1.65;;;;;;;24.57;28.40;100053.13;4470343;32;34167;-58
2022/05/14 14:15:18;;;;;;;9.95;1.70;;;;;;;24.45;28.85;100056.69;4456211;32;32967;-57
2022/05/14 14:17:49;;;;;;;6.12;2.00;;;;;;;24.69;29.47;100049.50;4469245;32;34621;-58
2022/05/14 14:20:17;;;;;;;8.70;2.33;;;;;;;24.27;29.55;100052.44;4466435;32;34054;-58
2022/05/14 14:22:46;;;;;;;5.25;3.35;;;;;;;24.12;31.08;100047.25;4463337;32;33157;-58
2022/05/14 14:25:14;;;;;;;5.43;1.85;;;;;;;24.34;30.59;100045.34;4467929;32;33585;-57
2022/05/14 14:27:43;;;;;;;4.70;2.05;;;;;;;24.33;30.32;100035.62;4466041;32;33901;-57
2022/05/14 14:30:14;;;;;;;6.68;2.58;;;;;;;24.29;29.47;100045.34;4456082;32;33883;-58
2022/05/14 14:32:42;;;;;;;5.25;1.85;;;;;;;24.25;29.12;100042.75;4456511;32;34421;-57
2022/05/14 14:35:10;;;;;;;4.30;1.62;;;;;;;24.43;29.24;100047.88;4469804;32;33828;-57
2022/05/14 14:37:39;;;;;;;4.35;1.37;;;;;;;24.50;26.80;100043.44;4470144;32;35285;-57
2022/05/14 14:40:10;;;;;;;3.40;1.35;;;;;;;24.11;27.71;100048.16;4456427;32;33754;-58
2022/05/14 14:42:40;;;;;;;6.28;1.73;;;;;;;24.32;28.72;100042.69;4455030;32;31572;-57
2022/05/14 14:45:13;;;;;;;4.30;1.48;;;;;;;24.13;29.04;100041.94;4464654;32;34034;-57
2022/05/14 14:47:44;;;;;;;4.90;1.67;;;;;;;24.04;29.12;100039.34;4450206;32;34407;-58
2022/05/14 14:50:14;;;;;;;4.95;1.60;;;;;;;24.11;29.34;100035.78;4467510;32;33979;-57
2022/05/14 14:52:42;;;;;;;4.43;1.73;;;;;;;24.17;28.32;100034.00;4469469;32;32482;-57
2022/05/14 14:55:10;;;;;;;4.75;1.87;;;;;;;23.94;28.99;100041.19;4469846;32;33875;-57
2022/05/14 14:57:39;;;;;;;4.40;2.00;;;;;;;23.66;30.67;100043.09;4467195;32;33718;-57
2022/05/14 15:00:08;;;;;;;7.78;2.28;;;;;;;23.92;30.93;100044.72;4469846;32;33884;-58
2022/05/14 15:02:42;;;;;;;4.95;1.80;;;;;;;23.91;31.98;100038.56;4468920;32;33542;-57
2022/05/14 15:05:14;;;;;;;;;;;;;;;23.65;30.54;100036.03;4456239;32;34582;-58
2022/05/14 15:07:42;;;;;;;5.45;1.92;;;;;;;23.16;30.15;100030.94;4451507;32;33495;-58
2022/05/14 15:10:11;;;;;;;3.58;1.60;;;;;;;23.32;31.38;100037.94;4468711;32;33982;-57
2022/05/14 15:12:39;;;;;;;6.82;1.98;;;;;;;24.12;30.98;100037.53;4467958;32;33131;-57
2022/05/14 15:15:07;;;;;;;4.28;1.80;;;;;;;24.01;31.00;100038.50;4464052;32;33770;-58
2022/05/14 15:17:35;;;;;;;5.60;1.73;;;;;;;24.31;29.81;100026.81;4455166;32;33093;-58
2022/05/14 15:20:04;;;;;;;5.45;1.90;;;;;;;23.92;30.80;100027.09;4469189;32;34542;-57
2022/05/14 15:22:32;;;;;;;6.68;1.90;;;;;;;23.93;30.45;100033.25;4467200;32;33458;-57
2022/05/14 15:25:00;;;;;;;4.85;1.80;;;;;;;23.93;30.26;100020.03;4467744;32;33485;-57
2022/05/14 15:27:28;;;;;;;4.50;1.70;;;;;;;24.19;30.25;100027.78;4465854;32;33791;-57
2022/05/14 15:29:55;;;;;;;4.50;1.50;;;;;;;24.02;30.34;100019.97;4468278;32;34569;-57
2022/05/14 15:32:24;;;;;;;4.22;1.73;;;;;;;24.34;30.14;100016.22;4466654;32;33178;-57
2022/05/14 15:34:56;;;;;;;4.28;1.87;;;;;;;24.56;30.51;100013.41;4467302;32;34431;-58
2022/05/14 15:37:24;;;;;;;3.08;1.40;;;;;;;24.43;30.46;100016.13;4468271;32;33600;-57
2022/05/14 15:39:52;;;;;;;6.70;2.10;;;;;;;24.62;30.92;100014.22;4468856;32;33759;-58
2022/05/14 15:42:35;;;;;;;6.72;1.83;;;;;;;24.62;29.78;100010.72;4475560;32;33161;-58
2022/05/14 15:45:30;;;;;;;6.05;1.67;;;;;;;24.71;30.47;100007.97;4465716;32;33681;-58
2022/05/14 15:48:15;;;;;;;7.53;2.12;;;;;;;24.40;31.66;100010.88;4450460;32;33789;-58
2022/05/14 15:50:43;;;;;;;3.10;1.60;;;;;;;24.39;30.69;100013.53;4458703;32;33941;-57
2022/05/14 15:53:17;;;;;;;3.62;1.60;;;;;;;24.18;31.11;100014.56;4445043;32;32876;-58
2022/05/14 15:55:47;;;;;;;5.32;1.55;;;;;;;24.52;31.00;100010.78;4455843;32;33863;-58
2022/05/14 15:58:15;;;;;;;4.25;2.17;;;;;;;23.90;29.32;100005.06;4453536;32;33778;-57
2022/05/14 16:00:43;;;;;;;7.47;2.10;;;;;;;23.63;29.56;100006.06;4468376;32;33884;-57
2022/05/14 16:03:11;;;;;;;5.10;1.70;;;;;;;23.82;30.73;100008.66;4465243;32;33361;-57
2022/05/14 16:05:38;;;;;;;4.90;2.10;;;;;;;23.24;31.59;100010.66;4469863;32;33890;-57
2022/05/14 16:08:06;;;;;;;3.10;1.65;;;;;;;23.15;31.54;100008.91;4470933;32;34712;-57
2022/05/14 16:16:12;;;;;;;4.72;1.70;;;;;;;23.75;29.43;99998.03;4470223;32;34009;-57
2022/05/14 16:18:43;;;;;;;3.03;1.80;;;;;;;23.69;29.64;99999.88;4476383;32;34040;-58
2022/05/14 16:21:13;;;;;;;5.18;1.83;;;;;;;23.59;29.99;99991.09;4468270;32;34263;-58
2022/05/14 16:23:41;;;;;;;3.97;1.80;;;;;;;23.84;29.92;100004.22;4470187;32;33305;-58
2022/05/14 16:26:13;;;;;;;5.72;1.50;;;;;;;23.84;29.71;100004.22;4456069;32;33114;-58
2022/05/14 16:28:42;;;;;;;4.12;1.60;;;;;;;23.52;29.76;99981.44;4449008;32;34037;-58
2022/05/14 16:31:10;;;;;;;7.25;2.00;;;;;;;23.44;29.63;99985.91;4466237;32;32854;-57
2022/05/14 16:33:38;;;;;;;5.25;1.58;;;;;;;23.42;30.19;99990.31;4451343;32;31909;-57
2022/05/14 16:36:07;;;;;;;3.85;1.75;;;;;;;23.45;30.00;99996.47;4468341;32;33958;-58
2022/05/14 16:38:35;;;;;;;4.00;1.50;;;;;;;23.59;30.53;99993.75;4468306;32;33936;-57
2022/05/14 16:41:02;;;;;;;4.03;1.70;;;;;;;23.79;30.48;99998.94;4472514;32;33985;-57
2022/05/14 16:43:31;;;;;;;3.25;1.25;;;;;;;23.58;29.48;99997.25;4473255;32;34090;-57
2022/05/14 16:45:58;;;;;;;5.95;1.52;;;;;;;23.58;29.60;99997.25;4469910;32;34006;-57
2022/05/14 16:48:26;;;;;;;4.60;1.80;;;;;;;23.59;29.60;100001.69;4470610;32;33618;-57
2022/05/14 16:50:54;;;;;;;4.72;1.40;;;;;;;23.67;29.67;100007.81;4473046;32;33442;-57
2022/05/14 16:53:22;;;;;;;4.25;1.42;;;;;;;24.14;28.69;100004.03;4470418;32;33403;-57
2022/05/14 16:55:50;;;;;;;3.97;1.80;;;;;;;23.52;29.92;99998.16;4472721;32;33956;-57
2022/05/14 16:58:19;;;;;;;11.15;1.90;;;;;;;23.49;29.81;100007.91;4467170;32;34445;-58
2022/05/14 17:00:47;;;;;;;7.05;1.70;;;;;;;23.36;29.84;99996.50;4472557;32;34096;-57
2022/05/14 17:03:14;;;;;;;4.25;1.48;;;;;;;23.17;30.09;100011.53;4456800;32;34228;-58
2022/05/14 17:05:43;;;;;;;5.30;1.48;;;;;;;23.42;29.96;100006.16;4459324;32;34050;-58
2022/05/14 17:08:11;;;;;;;4.50;1.50;;;;;;;23.32;30.20;100010.63;4468517;32;33899;-57
2022/05/14 17:10:41;;;;;;;4.03;1.50;;;;;;;23.21;30.63;100008.00;4470394;32;34544;-57
2022/05/14 17:13:10;;;;;;;4.15;1.42;;;;;;;23.06;31.14;100015.97;4473120;32;34147;-58
2022/05/14 17:15:40;;;;;;;3.95;1.50;;;;;;;23.36;30.45;100007.06;4471297;32;34721;-58
2022/05/14 17:18:11;;;;;;;5.53;1.37;;;;;;;23.24;30.92;100018.56;4471178;32;33843;-58
2022/05/14 17:20:41;;;;;;;3.37;1.45;;;;;;;23.32;30.58;100011.50;4468600;32;33906;-58
2022/05/14 17:23:09;;;;;;;4.93;1.48;;;;;;;23.01;30.75;100018.62;4476260;32;32846;-58
2022/05/14 17:25:36;;;;;;;7.90;1.92;;;;;;;22.77;31.38;100023.06;4473609;32;33981;-57
2022/05/14 17:28:04;;;;;;;4.05;1.50;;;;;;;22.60;31.30;100024.84;4465167;32;32437;-58
2022/05/14 17:30:34;;;;;;;6.70;1.85;;;;;;;22.38;31.81;100024.81;4462015;32;34563;-57
2022/05/14 17:33:05;;;;;;;4.75;1.50;;;;;;;22.54;31.79;100020.44;4459383;32;33972;-58
2022/05/14 17:35:52;;;;;;;4.53;1.65;;;;;;;22.43;31.54;100022.22;4471640;32;32938;-57
2022/05/14 17:41:17;;;;;;;3.90;1.87;;;;;;;22.32;31.91;100031.88;4475473;32;33738;-58
2022/05/14 17:43:44;;;;;;;5.47;1.33;;;;;;;22.03;32.74;100037.09;4470126;32;33421;-57
2022/05/14 17:46:12;;;;;;;7.90;1.80;;;;;;;22.28;32.64;100040.69;4457008;32;33357;-58
2022/05/14 17:48:40;;;;;;;5.15;1.70;;;;;;;22.48;32.22;100052.09;4468091;32;33638;-58
2022/05/14 17:51:08;;;;;;;6.57;1.48;;;;;;;22.61;32.30;100045.06;4472347;32;34052;-58
2022/05/14 17:53:38;;;;;;;5.97;1.83;;;;;;;22.41;32.43;100055.66;4471349;32;33543;-57
2022/05/14 17:56:08;;;;;;;4.28;1.55;;;;;;;22.40;32.60;100058.28;4465532;32;33835;-57
2022/05/14 17:58:38;;;;;;;7.57;1.90;;;;;;;22.55;32.32;100059.16;4451863;32;33121;-58
2022/05/14 18:01:06;;;;;;;3.30;1.58;;;;;;;22.44;32.48;100060.03;4454136;32;34778;-57
2022/05/14 18:03:34;;;;;;;6.55;1.77;;;;;;;22.06;32.99;100064.34;4468784;32;33177;-58
2022/05/14 18:06:01;;;;;;;5.80;1.65;;;;;;;22.04;33.12;100071.37;4467932;32;33650;-57
2022/05/14 18:08:29;;;;;;;8.60;1.55;;;;;;;22.03;33.18;100077.53;4452169;32;33948;-57
2022/05/14 18:13:42;;;;;;;3.60;1.75;;;;;;;21.91;33.54;100077.50;4467654;32;32122;-57
2022/05/14 18:16:10;;;;;;;4.05;1.55;;;;;;;21.94;33.89;100085.41;4466376;32;33661;-57
2022/05/14 18:18:38;;;;;;;5.10;1.40;;;;;;;21.84;34.05;100081.00;4468230;32;34641;-57
2022/05/14 18:21:07;;;;;;;4.87;1.70;;;;;;;21.70;34.39;100079.19;4465983;32;33865;-57
2022/05/14 18:23:35;;;;;;;6.12;2.78;;;;;;;22.10;33.79;100089.88;4467257;32;33353;-57
2022/05/14 18:26:05;;;;;;;5.32;1.50;;;;;;;22.11;34.18;100088.97;4451599;32;34045;-58
2022/05/14 18:28:40;;;;;;;6.62;1.75;;;;;;;22.05;33.92;100090.72;4457291;32;33860;-57
2022/05/14 18:31:08;;;;;;;5.90;1.80;;;;;;;22.04;34.08;100087.22;4466434;32;33145;-57
2022/05/14 18:33:40;;;;;;;6.35;1.65;;;;;;;21.80;35.31;100086.25;4459160;32;33216;-57
2022/05/14 18:36:11;;;;;;;6.82;1.50;;;;;;;21.10;37.25;100104.31;4456267;32;33805;-57
2022/05/14 18:38:41;;;;;;;5.30;1.90;;;;;;;20.66;38.60;100107.47;4450761;32;34396;-58
2022/05/14 18:41:13;;;;;;;9.35;2.35;;;;;;;20.62;38.48;100107.44;4472808;32;33239;-57
2022/05/14 18:43:41;;;;;;;8.02;2.65;;;;;;;20.52;38.14;100110.84;4466018;32;34384;-58
2022/05/14 18:46:09;;;;;;;6.78;1.70;;;;;;;21.00;37.49;100120.03;4452504;32;33916;-57
2022/05/14 18:48:37;;;;;;;6.55;2.28;;;;;;;20.99;37.38;100125.28;4452063;32;34518;-58
2022/05/14 18:51:08;;;;;;;4.12;1.73;;;;;;;20.79;37.97;100119.88;4460876;32;34643;-58
2022/05/14 18:53:36;;;;;;;5.40;2.00;;;;;;;21.37;36.60;100122.03;4464910;32;33801;-58
2022/05/14 18:56:04;;;;;;;2.95;1.60;;;;;;;21.47;36.62;100125.66;4465251;32;34465;-58
2022/05/14 18:58:32;;;;;;;3.40;1.90;;;;;;;21.33;37.59;100133.44;4466997;32;33878;-58
2022/05/14 19:01:00;;;;;;;8.07;2.00;;;;;;;21.40;37.10;100130.84;4473439;32;34027;-58
2022/05/14 19:03:28;;;;;;;5.15;1.87;;;;;;;20.98;37.78;100132.31;4455524;32;33280;-58
2022/05/14 19:08:42;;;;;;;3.60;1.60;;;;;;;21.38;37.96;100132.59;4457514;32;33705;-58
2022/05/14 19:11:09;;;;;;;3.83;1.52;;;;;;;21.46;37.84;100134.41;4437031;32;33716;-58
2022/05/14 19:13:37;;;;;;;4.65;1.80;;;;;;;21.50;37.11;100131.81;4473519;32;33863;-58
2022/05/14 19:16:06;;;;;;;5.20;1.95;;;;;;;21.55;37.19;100129.19;4466955;32;34771;-57
2022/05/14 19:18:38;;;;;;;4.50;2.08;;;;;;;21.06;37.64;100135.00;4467101;32;33665;-58
2022/05/14 19:21:06;;;;;;;6.70;2.58;;;;;;;21.02;37.93;100138.50;4460444;32;33100;-57
2022/05/14 19:23:34;;;;;;;6.90;2.42;;;;;;;19.98;40.04;100133.06;4473700;32;34068;-57
2022/05/14 19:26:02;;;;;;;5.95;2.28;;;;;;;20.04;39.73;100134.00;4471623;32;34129;-57
2022/05/14 19:28:30;;;;;;;8.32;2.45;;;;;;;19.77;40.77;100134.56;4464809;32;33301;-57
2022/05/14 19:30:59;;;;;;;5.87;2.40;;;;;;;19.79;40.69;100132.81;4465853;32;33720;-57
2022/05/14 19:33:26;;;;;;;6.78;2.72;;;;;;;20.25;40.29;100137.75;4449875;32;33158;-57
2022/05/14 19:35:55;;;;;;;6.70;2.33;;;;;;;19.88;41.29;100132.06;4452404;32;33877;-57
2022/05/14 19:38:27;;;;;;;8.40;2.80;;;;;;;19.49;41.74;100140.28;4464202;32;34476;-57
2022/05/14 19:40:58;;;;;;;7.05;2.40;;;;;;;19.47;42.04;100134.12;4464433;32;34412;-57
2022/05/14 19:43:31;;;;;;;5.12;2.58;;;;;;;20.01;40.73;100122.56;4450747;32;33329;-57
2022/05/14 19:46:00;;;;;;;7.22;2.37;;;;;;;19.27;42.86;100126.84;4465863;32;34080;-57
2022/05/14 19:48:28;;;;;;;7.35;2.15;;;;;;;18.95;43.26;100126.34;4439143;32;33806;-58
2022/05/14 19:50:56;;;;;;;4.72;2.37;;;;;;;18.14;45.17;100131.91;4443198;32;32287;-57
2022/05/14 19:53:24;;;;;;;4.87;2.22;;;;;;;18.15;45.27;100138.03;4466066;32;33330;-58
2022/05/14 19:55:51;;;;;;;4.68;2.15;;;;;;;18.04;45.58;100140.41;4450857;32;33521;-57
2022/05/14 19:58:19;;;;;;;6.00;2.12;;;;;;;17.63;46.47;100143.03;4452364;32;33554;-57
2022/05/14 20:00:48;;;;;;;6.82;2.78;;;;;;;17.64;46.44;100142.19;4468380;32;33899;-57
2022/05/14 20:03:17;;;;;;;8.80;4.00;;;;;;;17.57;46.33;100140.28;4467706;32;33311;-56
2022/05/14 20:05:47;;;;;;;7.40;2.72;;;;;;;17.66;46.52;100140.50;4462774;32;34136;-57
2022/05/14 20:08:15;;;;;;;5.20;2.45;;;;;;;17.88;46.22;100137.47;4467779;32;33427;-58
2022/05/14 20:10:43;;;;;;;6.47;2.60;;;;;;;17.84;46.21;100140.03;4467097;32;33853;-57
2022/05/14 20:13:16;;;;;;;9.93;2.92;;;;;;;18.84;44.02;100139.31;4467604;32;34084;-57
2022/05/14 20:15:44;;;;;;;7.80;2.58;;;;;;;18.43;45.13;100139.44;4469029;32;34547;-58
2022/05/14 20:21:00;;;;;;;5.45;2.40;;;;;;;17.96;46.72;100139.38;4465543;32;34809;-58
2022/05/14 20:23:40;;;;;;;5.50;2.15;;;;;;;18.41;45.54;100142.03;4468387;32;34467;-57
2022/05/14 20:26:14;;;;;;;6.18;2.35;;;;;;;19.20;44.16;100146.88;4453620;32;34819;-57
2022/05/14 20:28:42;;;;;;;5.90;2.70;;;;;;;19.39;43.33;100142.78;4466805;32;34762;-58
2022/05/14 20:31:10;;;;;;;5.62;2.50;;;;;;;19.51;42.97;100141.16;4467241;32;33975;-58
2022/05/14 20:33:39;;;;;;;7.82;2.62;;;;;;;19.79;42.91;100139.84;4471650;32;33517;-58
2022/05/14 20:36:06;;;;;;;7.22;2.33;;;;;;;17.82;47.06;100145.19;4469271;32;34060;-57
2022/05/14 20:38:35;;;;;;;4.68;2.22;;;;;;;18.48;46.28;100143.00;4467074;32;34274;-57
2022/05/14 20:41:04;;;;;;;5.93;2.25;;;;;;;19.09;44.19;100147.59;4467757;32;34012;-57
2022/05/14 20:43:31;;;;;;;5.10;1.80;;;;;;;19.07;43.78;100144.94;4467519;32;33087;-58
2022/05/14 20:45:59;;;;;;;5.43;2.30;;;;;;;18.86;43.58;100140.22;4452105;32;34422;-56
2022/05/14 20:48:27;;;;;;;5.43;2.20;;;;;;;18.83;43.86;100150.62;4466288;32;34636;-57
2022/05/14 20:50:54;;;;;;;4.85;1.98;;;;;;;18.94;44.01;100148.22;4436925;32;32738;-57
2022/05/14 20:53:22;;;;;;;5.78;2.10;;;;;;;19.12;42.33;100147.59;4434532;32;31837;-57
2022/05/14 20:55:52;;;;;;;6.50;2.00;;;;;;;19.11;42.11;100151.09;4465920;32;34429;-57
2022/05/14 20:58:20;;;;;;;6.12;1.80;;;;;;;19.12;42.21;100137.09;4464804;32;33408;-57
2022/05/14 21:00:49;;;;;;;6.12;2.20;;;;;;;19.15;42.79;100147.66;4467748;32;34075;-57
2022/05/14 21:03:17;;;;;;;6.07;1.80;;;;;;;19.34;41.97;100149.72;4464235;32;33425;-57
2022/05/14 21:05:45;;;;;;;7.55;2.00;;;;;;;19.11;42.66;100153.75;4464243;32;33985;-57
2022/05/14 21:08:14;;;;;;;5.28;2.00;;;;;;;18.74;43.37;100150.47;4452649;32;33594;-57
2022/05/14 21:10:41;;;;;;;4.97;1.98;;;;;;;19.03;43.17;100148.38;4462987;32;34670;-56
2022/05/14 21:13:12;;;;;;;6.15;2.45;;;;;;;19.29;42.36;100156.63;4466846;32;33714;-57
2022/05/14 21:15:40;;;;;;;4.10;2.10;;;;;;;17.45;46.64;100165.34;4463101;32;34432;-56
2022/05/14 21:18:08;;;;;;;7.55;2.20;;;;;;;17.04;47.95;100162.66;4464364;32;34789;-57
2022/05/14 21:20:36;;;;;;;3.60;2.12;;;;;;;17.95;46.33;100155.97;4463394;32;33981;-56
2022/05/14 21:23:04;;;;;;;5.55;2.00;;;;;;;18.35;45.10;100154.12;4464303;32;33392;-57
2022/05/14 21:25:32;;;;;;;7.12;2.00;;;;;;;18.64;44.19;100154.69;4464307;32;33652;-57
2022/05/14 21:28:00;;;;;;;3.37;1.80;;;;;;;18.55;44.39;100157.12;4463935;32;34712;-57
2022/05/14 21:30:28;;;;;;;4.50;1.98;;;;;;;18.35;44.95;100156.75;4462978;32;33940;-57
2022/05/14 21:32:56;;;;;;;7.37;2.30;;;;;;;18.47;44.92;100164.88;4462545;32;34072;-57
2022/05/14 21:38:12;;;;;;;4.15;1.75;;;;;;;18.08;45.90;100163.25;4465030;32;32246;-58
2022/05/14 21:40:40;;;;;;;4.75;2.03;;;;;;;18.53;44.65;100161.47;4464591;32;33939;-57
2022/05/14 21:43:11;;;;;;;6.37;2.00;;;;;;;18.51;44.76;100164.06;4463172;32;33468;-57
2022/05/14 21:45:41;;;;;;;3.80;1.87;;;;;;;18.76;44.01;100165.38;4463221;32;33855;-57
2022/05/14 21:48:09;;;;;;;7.87;2.45;;;;;;;18.65;44.70;100167.81;4447351;32;35280;-57
2022/05/14 21:50:39;;;;;;;4.32;2.12;;;;;;;18.66;44.91;100166.97;4463567;32;34583;-57
2022/05/14 21:53:09;;;;;;;3.70;1.98;;;;;;;18.95;44.05;100170.97;4464893;32;33434;-57
2022/05/14 21:55:45;;;;;;;6.12;1.87;;;;;;;18.59;45.94;100172.94;4462940;32;33666;-57
2022/05/14 21:58:14;;;;;;;7.43;2.20;;;;;;;18.25;46.83;100177.56;4438994;32;33863;-57
2022/05/14 22:00:54;;;;;;;7.12;2.10;;;;;;;18.07;47.20;100179.81;4453106;32;33411;-57
2022/05/14 22:03:22;;;;;;;6.32;2.78;;;;;;;18.23;47.15;100181.00;4468092;32;33750;-57
2022/05/14 22:05:54;;;;;;;6.97;2.75;;;;;;;17.87;48.06;100180.28;4468496;32;32962;-57
2022/05/14 22:08:28;;;;;;;5.35;2.05;;;;;;;17.86;48.25;100188.97;4469560;32;34183;-57
2022/05/14 22:10:58;;;;;;;7.00;2.15;;;;;;;17.70;48.15;100181.62;4463729;32;34319;-57
2022/05/14 22:13:26;;;;;;;4.45;2.00;;;;;;;17.70;47.84;100181.62;4470994;32;33630;-57
2022/05/14 22:15:58;;;;;;;5.45;2.20;;;;;;;17.53;48.60;100185.59;4469980;32;33997;-57
2022/05/14 22:18:30;;;;;;;;;;;;;;;16.91;50.35;100184.13;4468248;32;34843;-57
2022/05/14 22:20:57;;;;;;;5.22;2.47;;;;;;;16.16;51.39;100182.97;4456467;32;35159;-57
2022/05/14 22:23:26;;;;;;;5.60;2.60;;;;;;;15.63;53.33;100185.75;4470017;32;34166;-58
2022/05/14 22:25:56;;;;;;;4.70;2.33;;;;;;;16.41;51.59;100175.81;4466508;32;34761;-57
2022/05/14 22:28:24;;;;;;;6.05;2.37;;;;;;;16.04;52.55;100178.28;4441257;32;33810;-57
2022/05/14 22:30:56;;;;;;;11.38;3.22;;;;;;;16.26;52.21;100185.03;4470187;32;34262;-57
2022/05/14 22:33:26;;;;;;;6.55;2.60;;;;;;;17.38;49.79;100187.00;4470475;32;33813;-57
2022/05/14 22:35:55;;;;;;;6.80;2.62;;;;;;;17.18;50.36;100181.31;4454638;32;32459;-58
2022/05/14 22:38:26;;;;;;;6.12;2.35;;;;;;;17.54;49.46;100175.16;4468175;32;34052;-57
2022/05/14 22:40:58;;;;;;;5.80;2.33;;;;;;;16.79;51.58;100179.44;4467153;32;35004;-57
2022/05/14 22:43:35;;;;;;;4.20;2.50;;;;;;;16.61;52.14;100177.25;4453622;32;34112;-58